Time;durP1;ratioP1;P1;durP2;ratioP2;P2;SDS_P1;SDS_P2;PMS_P1;PMS_P2;Temp;Humidity;BMP_temperature;BMP_pressure;BME280_temperature;BME280_humidity;BME280_pressure;Samples;Min_cycle;Max_cycle;Signal;HPM_P1;HPM_P2
2022/09/14 00:00:55;;;;;;;0.10;0.10;;;19.40;99.90;;;;;;5092976;28;20028;-74
2022/09/14 00:03:21;;;;;;;0.10;0.10;;;19.30;99.90;;;;;;5092741;28;20469;-73
2022/09/14 00:05:47;;;;;;;0.10;0.10;;;19.20;99.90;;;;;;5091461;28;20020;-74
2022/09/14 00:08:14;;;;;;;0.00;0.00;;;19.10;99.90;;;;;;5092727;28;20024;-74
2022/09/14 00:10:41;;;;;;;0.08;0.08;;;19.20;99.90;;;;;;5092464;28;20503;-74
2022/09/14 00:13:08;;;;;;;0.20;0.20;;;19.30;99.90;;;;;;5092809;28;20119;-73
2022/09/14 00:15:40;;;;;;;0.10;0.10;;;19.20;99.90;;;;;;5091093;28;20494;-74
2022/09/14 00:18:08;;;;;;;0.10;0.10;;;19.10;99.90;;;;;;5092645;28;20087;-74
2022/09/14 00:20:34;;;;;;;0.10;0.10;;;19.10;99.90;;;;;;5092568;28;20035;-74
2022/09/14 00:23:00;;;;;;;0.10;0.10;;;19.30;99.90;;;;;;5092338;28;20024;-74
2022/09/14 00:25:26;;;;;;;0.10;0.10;;;19.40;99.90;;;;;;5092568;28;20032;-74
2022/09/14 00:27:53;;;;;;;0.10;0.10;;;19.30;99.90;;;;;;5092404;28;20032;-74
2022/09/14 00:30:20;;;;;;;0.00;0.00;;;19.30;99.90;;;;;;5092446;28;20046;-74
2022/09/14 00:32:46;;;;;;;0.10;0.10;;;19.30;99.90;;;;;;5092308;28;20028;-74
2022/09/14 00:35:11;;;;;;;0.00;0.00;;;19.30;99.90;;;;;;5093109;28;20046;-74
2022/09/14 00:37:38;;;;;;;0.10;0.10;;;19.40;99.90;;;;;;5112507;28;20098;-73
2022/09/14 00:40:05;;;;;;;0.30;0.30;;;19.40;99.90;;;;;;5096292;27;20028;-74
2022/09/14 00:42:31;;;;;;;0.10;0.10;;;19.40;99.90;;;;;;5092744;28;20020;-74
2022/09/14 00:45:00;;;;;;;0.10;0.10;;;19.40;99.90;;;;;;5098321;28;20051;-74
2022/09/14 00:47:29;;;;;;;0.10;0.10;;;19.50;99.90;;;;;;5091599;28;20020;-74
2022/09/14 00:49:55;;;;;;;0.10;0.10;;;19.50;99.90;;;;;;5091976;28;20136;-74
2022/09/14 00:52:26;;;;;;;0.10;0.10;;;19.50;99.90;;;;;;5090681;28;20139;-74
2022/09/14 00:54:59;;;;;;;0.20;0.20;;;19.50;99.90;;;;;;5092004;28;20043;-73
2022/09/14 00:57:27;;;;;;;0.08;0.08;;;19.30;99.90;;;;;;5092079;28;20042;-74
2022/09/14 00:59:54;;;;;;;0.00;0.00;;;19.40;99.90;;;;;;5091944;28;20020;-74
2022/09/14 01:02:22;;;;;;;0.10;0.10;;;19.30;99.90;;;;;;5091917;28;20430;-74
2022/09/14 01:04:48;;;;;;;0.10;0.10;;;19.20;99.90;;;;;;5090567;28;20073;-73
2022/09/14 01:07:33;;;;;;;0.20;0.20;;;19.30;99.90;;;;;;5091875;28;20028;-74
2022/09/14 01:10:15;;;;;;;0.10;0.10;;;19.30;99.90;;;;;;5091702;28;20032;-74
2022/09/14 01:13:14;;;;;;;0.10;0.10;;;19.30;99.90;;;;;;5091802;28;20416;-74
2022/09/14 01:15:58;;;;;;;0.10;0.10;;;19.50;99.90;;;;;;5091743;28;20042;-73
2022/09/14 01:18:31;;;;;;;0.75;0.75;;;19.70;99.90;;;;;;5092269;28;20073;-74
2022/09/14 01:21:09;;;;;;;0.10;0.10;;;19.90;99.90;;;;;;5091919;28;20031;-74
2022/09/14 01:24:00;;;;;;;0.10;0.10;;;19.80;99.90;;;;;;5090450;28;20028;-73
2022/09/14 01:26:46;;;;;;;0.10;0.10;;;19.60;99.90;;;;;;5091658;28;20471;-74
2022/09/14 01:29:31;;;;;;;0.00;0.00;;;19.60;99.90;;;;;;5091704;28;20081;-74
2022/09/14 01:32:14;;;;;;;0.00;0.00;;;19.60;99.90;;;;;;5091690;28;20436;-75
2022/09/14 01:34:53;;;;;;;0.10;0.10;;;19.70;99.90;;;;;;5091725;28;20073;-74
2022/09/14 01:37:28;;;;;;;0.43;0.43;;;19.50;99.90;;;;;;5091755;28;20111;-73
2022/09/14 01:40:14;;;;;;;0.10;0.10;;;19.30;99.90;;;;;;5091688;28;20028;-74
2022/09/14 01:42:43;;;;;;;0.00;0.00;;;19.10;99.90;;;;;;5087563;28;20436;-74
2022/09/14 01:45:12;;;;;;;0.32;0.32;;;19.00;99.90;;;;;;5090402;28;20023;-74
2022/09/14 01:47:50;;;;;;;0.10;0.10;;;19.10;99.90;;;;;;5091559;28;20024;-74
2022/09/14 01:50:42;;;;;;;0.10;0.10;;;19.00;99.90;;;;;;5091454;28;20430;-74
2022/09/14 01:53:33;;;;;;;0.10;0.10;;;19.10;99.90;;;;;;5091860;28;20024;-74
2022/09/14 01:56:19;;;;;;;0.10;0.10;;;19.20;99.90;;;;;;5095158;28;20031;-73
2022/09/14 01:59:11;;;;;;;0.00;0.00;;;19.20;99.90;;;;;;5093981;28;20039;-74
2022/09/14 02:01:43;;;;;;;0.00;0.00;;;19.10;99.90;;;;;;5092624;28;20040;-74
2022/09/14 02:04:12;;;;;;;0.10;0.10;;;19.00;99.90;;;;;;5095187;28;20106;-73
2022/09/14 02:06:42;;;;;;;0.05;0.05;;;18.90;99.90;;;;;;5094996;28;20032;-73
2022/09/14 02:09:12;;;;;;;0.10;0.10;;;18.90;99.90;;;;;;5094925;28;20050;-74
2022/09/14 02:11:38;;;;;;;0.10;0.10;;;18.80;99.90;;;;;;5093697;28;20022;-74
2022/09/14 02:14:05;;;;;;;0.03;0.03;;;18.80;99.90;;;;;;5093528;28;20387;-74
2022/09/14 02:16:31;;;;;;;0.00;0.00;;;19.00;99.90;;;;;;5094751;28;20024;-74
2022/09/14 02:19:00;;;;;;;0.22;0.22;;;19.00;99.90;;;;;;5094878;28;20394;-74
2022/09/14 02:21:29;;;;;;;0.10;0.10;;;19.10;99.90;;;;;;5095258;28;20024;-73
2022/09/14 02:23:56;;;;;;;0.10;0.10;;;19.00;99.90;;;;;;5093537;28;20024;-74
2022/09/14 02:26:22;;;;;;;0.10;0.10;;;19.00;99.90;;;;;;5094604;28;20552;-74
2022/09/14 02:28:48;;;;;;;0.10;0.10;;;19.00;99.90;;;;;;5094777;28;20020;-74
2022/09/14 02:31:28;;;;;;;0.10;0.10;;;18.80;99.90;;;;;;5093319;28;20057;-74
2022/09/14 02:34:18;;;;;;;0.10;0.10;;;18.70;99.90;;;;;;5093364;28;20130;-74
2022/09/14 02:37:04;;;;;;;0.10;0.10;;;18.70;99.90;;;;;;5094408;28;20031;-74
2022/09/14 02:39:55;;;;;;;0.10;0.10;;;18.50;99.90;;;;;;5094733;28;20031;-73
2022/09/14 02:42:35;;;;;;;0.00;0.00;;;18.60;99.90;;;;;;5094388;28;20547;-74
2022/09/14 02:45:21;;;;;;;0.10;0.10;;;18.70;99.90;;;;;;5094317;28;20456;-74
2022/09/14 02:48:07;;;;;;;0.10;0.10;;;18.90;99.90;;;;;;5094263;28;20042;-73
2022/09/14 02:50:54;;;;;;;0.10;0.10;;;19.00;99.90;;;;;;5089957;28;20044;-74
2022/09/14 02:53:34;;;;;;;0.10;0.10;;;18.90;99.90;;;;;;5092913;28;20531;-74
2022/09/14 02:56:04;;;;;;;0.00;0.00;;;18.80;99.90;;;;;;5094009;28;20055;-73
2022/09/14 02:58:35;;;;;;;0.10;0.10;;;19.00;99.90;;;;;;5092924;28;20089;-73
2022/09/14 03:01:03;;;;;;;0.10;0.10;;;19.00;99.90;;;;;;5093993;28;20028;-74
2022/09/14 03:03:28;;;;;;;0.10;0.10;;;19.20;99.90;;;;;;5093562;28;20036;-74
2022/09/14 03:05:56;;;;;;;0.10;0.10;;;19.20;99.90;;;;;;5092475;28;20098;-73
2022/09/14 03:08:22;;;;;;;0.10;0.10;;;19.10;99.90;;;;;;5093863;28;20091;-73
2022/09/14 03:10:48;;;;;;;0.20;0.20;;;18.80;99.90;;;;;;5092479;28;20027;-74
2022/09/14 03:13:14;;;;;;;0.08;0.08;;;18.70;99.90;;;;;;5093736;28;20016;-73
2022/09/14 03:15:40;;;;;;;0.10;0.10;;;18.70;99.90;;;;;;5093686;28;20020;-73
2022/09/14 03:18:07;;;;;;;0.10;0.10;;;18.90;99.90;;;;;;5093650;28;20026;-74
2022/09/14 03:20:34;;;;;;;0.10;0.10;;;19.00;99.90;;;;;;5093780;28;20035;-74
2022/09/14 03:23:00;;;;;;;0.10;0.10;;;18.90;99.90;;;;;;5093457;28;20111;-74
2022/09/14 03:25:27;;;;;;;0.35;0.35;;;18.70;99.90;;;;;;5093407;28;20024;-74
2022/09/14 03:27:55;;;;;;;0.10;0.10;;;18.80;99.90;;;;;;5093475;28;20074;-74
2022/09/14 03:30:21;;;;;;;0.10;0.10;;;18.80;99.90;;;;;;5093434;28;20440;-75
2022/09/14 03:32:47;;;;;;;0.10;0.10;;;18.70;99.90;;;;;;5091963;28;20059;-73
2022/09/14 03:35:14;;;;;;;0.43;0.43;;;18.50;99.90;;;;;;5093272;28;20491;-73
2022/09/14 03:37:41;;;;;;;0.10;0.10;;;18.30;99.90;;;;;;5093305;28;20059;-74
2022/09/14 03:40:08;;;;;;;0.00;0.00;;;18.40;99.90;;;;;;5093279;28;20040;-73
2022/09/14 03:42:34;;;;;;;0.10;0.10;;;18.60;99.90;;;;;;5093296;28;20042;-73
2022/09/14 03:45:00;;;;;;;0.05;0.05;;;18.50;99.90;;;;;;5092944;28;20436;-74
2022/09/14 03:47:26;;;;;;;0.10;0.10;;;18.60;99.90;;;;;;5093006;28;20027;-73
2022/09/14 03:49:52;;;;;;;0.10;0.10;;;18.80;99.90;;;;;;5091513;28;20377;-74
2022/09/14 03:52:18;;;;;;;0.10;0.10;;;18.80;99.90;;;;;;5092845;28;20028;-74
2022/09/14 03:54:44;;;;;;;0.10;0.10;;;18.70;99.90;;;;;;5092829;28;20042;-74
2022/09/14 03:57:10;;;;;;;0.10;0.10;;;18.80;99.90;;;;;;5093344;28;20020;-74
2022/09/14 03:59:36;;;;;;;0.10;0.10;;;18.80;99.90;;;;;;5091607;28;20028;-74
2022/09/14 04:02:02;;;;;;;0.10;0.10;;;18.90;99.90;;;;;;5092738;28;20099;-73
2022/09/14 04:04:28;;;;;;;0.10;0.10;;;18.90;99.90;;;;;;5092904;28;20020;-74
2022/09/14 04:06:53;;;;;;;0.10;0.10;;;18.90;99.90;;;;;;5092576;28;20028;-74
2022/09/14 04:09:20;;;;;;;0.10;0.10;;;18.90;99.90;;;;;;5092783;28;20120;-74
2022/09/14 04:11:46;;;;;;;0.10;0.10;;;18.90;99.90;;;;;;5092701;28;20471;-74
2022/09/14 04:14:13;;;;;;;0.10;0.10;;;18.90;99.90;;;;;;5091121;28;20027;-74
2022/09/14 04:16:40;;;;;;;0.10;0.10;;;18.90;99.90;;;;;;5091952;28;20403;-74
2022/09/14 04:19:07;;;;;;;0.10;0.10;;;18.90;99.90;;;;;;5092506;28;20480;-74
2022/09/14 04:21:33;;;;;;;0.10;0.10;;;18.90;99.90;;;;;;5092447;28;20476;-74
2022/09/14 04:23:59;;;;;;;0.00;0.00;;;19.00;99.90;;;;;;5092382;28;20072;-74
2022/09/14 04:26:27;;;;;;;0.10;0.10;;;19.00;99.90;;;;;;5092249;28;20077;-74
2022/09/14 04:28:55;;;;;;;0.10;0.10;;;19.00;99.90;;;;;;5092168;28;20027;-74
2022/09/14 04:31:21;;;;;;;0.10;0.10;;;18.80;99.90;;;;;;5092280;28;20103;-74
2022/09/14 04:33:49;;;;;;;0.20;0.17;;;18.80;99.90;;;;;;5092373;28;20058;-74
2022/09/14 04:36:19;;;;;;;0.10;0.10;;;18.70;99.90;;;;;;5092036;28;20122;-74
2022/09/14 04:38:45;;;;;;;0.20;0.20;;;18.60;99.90;;;;;;5092294;28;20023;-73
2022/09/14 04:41:19;;;;;;;0.10;0.10;;;18.50;99.90;;;;;;5092206;28;20047;-74
2022/09/14 04:43:46;;;;;;;0.10;0.10;;;18.50;99.90;;;;;;5092282;28;20024;-74
2022/09/14 04:46:13;;;;;;;0.10;0.10;;;18.50;99.90;;;;;;5090739;28;20028;-73
2022/09/14 04:48:39;;;;;;;0.30;0.30;;;18.60;99.90;;;;;;5090727;28;20039;-74
2022/09/14 04:51:12;;;;;;;0.52;0.30;;;18.60;99.90;;;;;;5091964;28;20035;-74
2022/09/14 04:53:39;;;;;;;0.10;0.10;;;18.50;99.90;;;;;;5091568;28;20024;-74
2022/09/14 04:56:07;;;;;;;0.20;0.20;;;18.60;99.90;;;;;;5090645;28;20046;-74
2022/09/14 04:58:33;;;;;;;0.10;0.10;;;18.60;99.90;;;;;;5090880;28;20026;-74
2022/09/14 05:01:04;;;;;;;0.10;0.10;;;18.80;99.90;;;;;;5090737;28;20030;-74
2022/09/14 05:03:30;;;;;;;0.10;0.10;;;18.80;99.90;;;;;;5090760;28;20047;-73
2022/09/14 05:06:01;;;;;;;0.00;0.00;;;18.90;99.90;;;;;;5091837;28;20528;-74
2022/09/14 05:08:27;;;;;;;0.00;0.00;;;19.10;99.90;;;;;;5091879;28;20032;-73
2022/09/14 05:10:54;;;;;;;0.10;0.10;;;19.20;99.90;;;;;;5091966;28;20274;-73
2022/09/14 05:13:20;;;;;;;0.10;0.10;;;19.20;99.90;;;;;;5090451;28;20472;-74
2022/09/14 05:15:46;;;;;;;0.00;0.00;;;19.20;99.90;;;;;;5091798;28;20026;-74
2022/09/14 05:18:12;;;;;;;0.10;0.10;;;19.20;99.90;;;;;;5091811;28;20039;-74
2022/09/14 05:20:37;;;;;;;0.03;0.03;;;19.20;99.90;;;;;;5091929;28;20113;-73
2022/09/14 05:23:03;;;;;;;0.10;0.10;;;19.20;99.90;;;;;;5091794;28;20093;-74
2022/09/14 05:25:29;;;;;;;0.10;0.10;;;19.30;99.90;;;;;;5091579;28;20092;-74
2022/09/14 05:27:55;;;;;;;0.00;0.00;;;19.30;99.90;;;;;;5094965;28;20111;-73
2022/09/14 05:30:21;;;;;;;0.00;0.00;;;19.40;99.90;;;;;;5095837;28;20165;-73
2022/09/14 05:32:46;;;;;;;0.10;0.10;;;19.40;99.90;;;;;;5095810;28;20027;-74
2022/09/14 05:35:12;;;;;;;0.10;0.10;;;19.60;99.90;;;;;;5095439;28;20077;-74
2022/09/14 05:37:38;;;;;;;0.10;0.10;;;19.60;99.90;;;;;;5095637;28;20078;-74
2022/09/14 05:40:05;;;;;;;0.10;0.10;;;19.60;99.90;;;;;;5116611;22;20127;-76
2022/09/14 05:42:31;;;;;;;0.00;0.00;;;19.50;99.90;;;;;;5073893;28;20017;-76
2022/09/14 05:44:56;;;;;;;0.10;0.10;;;19.40;99.90;;;;;;5079672;28;20043;-76
2022/09/14 05:47:22;;;;;;;0.10;0.10;;;19.40;99.90;;;;;;5057852;28;20411;-76
2022/09/14 05:49:48;;;;;;;0.10;0.10;;;19.50;99.90;;;;;;5075034;28;20028;-76
2022/09/14 05:52:14;;;;;;;0.52;0.47;;;19.40;99.90;;;;;;5079887;28;20017;-76
2022/09/14 05:54:40;;;;;;;0.10;0.10;;;19.30;99.90;;;;;;5083847;28;20024;-75
2022/09/14 05:57:05;;;;;;;0.08;0.08;;;19.30;99.90;;;;;;5074820;28;20369;-75
2022/09/14 05:59:31;;;;;;;0.03;0.03;;;19.30;99.90;;;;;;5074791;28;20028;-75
2022/09/14 06:01:58;;;;;;;0.00;0.00;;;19.20;99.90;;;;;;5075111;28;20103;-75
2022/09/14 06:04:24;;;;;;;0.10;0.10;;;19.20;99.90;;;;;;5074491;28;20115;-75
2022/09/14 06:06:49;;;;;;;0.10;0.10;;;19.20;99.90;;;;;;5074954;28;20486;-75
2022/09/14 06:09:15;;;;;;;0.00;0.00;;;19.20;99.90;;;;;;5074921;28;20021;-75
2022/09/14 06:11:41;;;;;;;0.10;0.10;;;19.20;99.90;;;;;;5073360;28;20472;-75
2022/09/14 06:14:07;;;;;;;0.10;0.10;;;19.20;99.90;;;;;;5074616;28;20059;-74
2022/09/14 06:16:33;;;;;;;0.30;0.30;;;19.10;99.90;;;;;;5074439;28;20552;-75
2022/09/14 06:18:59;;;;;;;0.57;0.32;;;19.10;99.90;;;;;;5077764;28;20034;-75
2022/09/14 06:21:33;;;;;;;2.83;0.60;;;19.10;99.90;;;;;;5080250;28;20119;-75
2022/09/14 06:23:59;;;;;;;0.10;0.10;;;19.10;99.90;;;;;;5092212;28;20187;-75
2022/09/14 06:26:25;;;;;;;0.00;0.00;;;19.10;99.90;;;;;;5073806;28;20437;-75
2022/09/14 06:28:52;;;;;;;0.10;0.10;;;19.30;99.90;;;;;;5074504;28;20414;-75
2022/09/14 06:31:21;;;;;;;0.10;0.10;;;19.30;99.90;;;;;;5074142;28;20437;-75
2022/09/14 06:33:48;;;;;;;0.68;0.40;;;19.30;99.90;;;;;;5070598;28;20466;-75
2022/09/14 06:36:19;;;;;;;0.57;0.57;;;19.40;99.90;;;;;;5069981;28;20379;-75
2022/09/14 06:38:47;;;;;;;0.10;0.10;;;19.20;99.90;;;;;;5069443;28;20457;-75
2022/09/14 06:41:18;;;;;;;0.22;0.22;;;19.20;99.90;;;;;;5070119;28;20040;-75
2022/09/14 06:43:44;;;;;;;0.10;0.10;;;19.20;99.90;;;;;;5070099;28;20023;-75
2022/09/14 06:46:19;;;;;;;0.10;0.10;;;19.20;99.90;;;;;;5068178;28;20400;-75
2022/09/14 06:49:19;;;;;;;0.47;0.47;;;19.30;99.90;;;;;;5067914;28;20031;-75
2022/09/14 06:51:46;;;;;;;0.00;0.00;;;19.40;99.90;;;;;;5069590;28;20115;-75
2022/09/14 06:54:14;;;;;;;0.30;0.30;;;19.50;99.90;;;;;;5069328;28;20027;-75
2022/09/14 06:56:41;;;;;;;0.10;0.10;;;19.50;99.90;;;;;;5067821;28;20021;-75
2022/09/14 06:59:09;;;;;;;0.00;0.00;;;19.70;99.90;;;;;;5068449;28;20025;-75
2022/09/14 07:01:35;;;;;;;0.10;0.10;;;19.70;99.90;;;;;;5068343;28;20028;-75
2022/09/14 07:04:02;;;;;;;0.10;0.10;;;19.60;99.90;;;;;;5066911;28;20131;-75
2022/09/14 07:06:31;;;;;;;0.10;0.10;;;19.60;99.90;;;;;;5051725;28;20450;-75
2022/09/14 07:08:57;;;;;;;0.05;0.05;;;19.60;99.90;;;;;;5065311;28;20658;-74
2022/09/14 07:11:25;;;;;;;1.48;0.93;;;19.50;99.90;;;;;;5068481;28;20299;-75
2022/09/14 07:13:59;;;;;;;0.13;0.13;;;19.40;99.90;;;;;;5068712;28;20020;-75
2022/09/14 07:16:35;;;;;;;0.03;0.03;;;19.30;99.90;;;;;;5068262;28;20029;-75
2022/09/14 07:19:04;;;;;;;0.00;0.00;;;19.30;99.90;;;;;;5069362;28;20027;-75
2022/09/14 07:21:31;;;;;;;0.60;0.60;;;19.30;99.90;;;;;;5071667;28;20068;-75
2022/09/14 07:23:57;;;;;;;0.00;0.00;;;19.30;99.90;;;;;;5073228;28;20388;-75
2022/09/14 07:26:26;;;;;;;0.10;0.10;;;19.40;99.90;;;;;;5072793;28;20395;-75
2022/09/14 07:28:57;;;;;;;0.10;0.10;;;19.50;99.90;;;;;;5071178;28;20491;-74
2022/09/14 07:31:24;;;;;;;;;;;19.60;99.90;;;;;;5072005;28;20565;-75
2022/09/14 07:33:55;;;;;;;0.10;0.10;;;19.60;99.90;;;;;;5071498;28;19909;-75
2022/09/14 07:36:22;;;;;;;0.10;0.10;;;19.70;99.90;;;;;;5072743;28;20099;-74
2022/09/14 07:38:48;;;;;;;0.10;0.10;;;19.70;99.90;;;;;;5071369;28;20055;-75
2022/09/14 07:41:14;;;;;;;0.63;0.43;;;19.90;99.90;;;;;;5071071;28;20052;-75
2022/09/14 07:43:40;;;;;;;0.68;0.32;;;20.00;99.90;;;;;;5071397;28;20024;-75
2022/09/14 07:46:06;;;;;;;0.10;0.10;;;20.00;99.90;;;;;;5072518;28;20029;-75
2022/09/14 07:48:34;;;;;;;0.10;0.10;;;20.10;99.90;;;;;;5072656;28;20024;-75
2022/09/14 07:51:06;;;;;;;8.48;2.08;;;20.10;99.90;;;;;;5070323;28;20491;-75
2022/09/14 07:53:44;;;;;;;4.90;0.52;;;20.10;99.90;;;;;;5071304;28;20549;-75
2022/09/14 07:56:11;;;;;;;1.55;0.30;;;20.10;99.90;;;;;;5071185;28;20029;-75
2022/09/14 07:58:37;;;;;;;0.13;0.13;;;20.20;99.90;;;;;;5054562;28;20020;-75
2022/09/14 08:01:10;;;;;;;0.60;0.40;;;20.40;99.90;;;;;;5072331;28;20048;-74
2022/09/14 08:03:38;;;;;;;1.40;0.70;;;20.50;99.90;;;;;;5072494;28;20048;-75
2022/09/14 08:06:10;;;;;;;0.20;0.20;;;20.40;99.90;;;;;;5054614;28;20055;-75
2022/09/14 08:08:37;;;;;;;;;;;20.50;99.90;;;;;;5072606;28;20025;-75
2022/09/14 08:11:15;;;;;;;5.97;0.73;;;20.60;99.90;;;;;;5070923;28;19908;-75
2022/09/14 08:13:44;;;;;;;0.25;0.25;;;20.60;99.90;;;;;;5071063;28;20108;-75
2022/09/14 08:16:10;;;;;;;0.60;0.60;;;20.60;99.90;;;;;;5070837;28;20031;-75
2022/09/14 08:18:37;;;;;;;9.40;4.22;;;20.70;99.90;;;;;;5072069;28;20028;-75
2022/09/14 08:21:08;;;;;;;0.10;0.10;;;20.80;99.90;;;;;;5071731;28;20031;-75
2022/09/14 08:23:35;;;;;;;0.10;0.10;;;20.80;99.90;;;;;;5070643;28;20391;-75
2022/09/14 08:26:08;;;;;;;0.20;0.20;;;20.90;99.90;;;;;;5071912;28;20035;-75
2022/09/14 08:28:35;;;;;;;0.20;0.20;;;20.90;99.90;;;;;;5072016;28;20020;-75
2022/09/14 08:31:12;;;;;;;8.30;2.70;;;21.00;99.90;;;;;;5071818;28;20033;-75
2022/09/14 08:33:45;;;;;;;0.75;0.60;;;21.00;99.90;;;;;;5070565;28;20044;-75
2022/09/14 08:36:13;;;;;;;7.68;1.75;;;21.10;99.90;;;;;;5053910;28;20024;-75
2022/09/14 08:38:39;;;;;;;0.08;0.08;;;21.20;99.90;;;;;;5070708;28;20170;-75
2022/09/14 08:41:17;;;;;;;0.30;0.30;;;21.40;99.90;;;;;;5070441;28;20071;-75
2022/09/14 08:43:43;;;;;;;0.10;0.10;;;21.60;99.90;;;;;;5070441;28;20016;-76
2022/09/14 08:46:21;;;;;;;0.00;0.00;;;21.70;99.90;;;;;;5071343;28;20035;-75
2022/09/14 08:48:48;;;;;;;0.10;0.10;;;21.90;99.90;;;;;;5070388;28;20021;-76
2022/09/14 08:51:15;;;;;;;0.00;0.00;;;22.40;99.90;;;;;;5053601;28;20051;-75
2022/09/14 08:53:42;;;;;;;0.00;0.00;;;22.70;99.90;;;;;;5070488;28;20021;-75
2022/09/14 08:56:23;;;;;;;0.10;0.10;;;23.00;99.90;;;;;;5070402;28;20101;-74
2022/09/14 08:59:10;;;;;;;0.25;0.25;;;23.30;99.90;;;;;;5070521;28;20020;-75
2022/09/14 09:01:53;;;;;;;0.10;0.10;;;23.40;99.90;;;;;;5070022;28;20044;-75
2022/09/14 09:04:18;;;;;;;0.25;0.25;;;23.70;99.90;;;;;;5071583;28;20120;-75
2022/09/14 09:06:55;;;;;;;0.30;0.30;;;23.80;99.90;;;;;;5070168;28;20103;-75
2022/09/14 09:09:21;;;;;;;0.00;0.00;;;23.80;99.90;;;;;;5071773;28;20180;-75
2022/09/14 09:11:51;;;;;;;0.15;0.15;;;24.00;99.90;;;;;;5070221;28;20108;-75
2022/09/14 09:14:23;;;;;;;0.70;0.70;;;24.00;99.90;;;;;;5071554;28;20021;-76
2022/09/14 09:16:52;;;;;;;1.00;0.20;;;24.30;99.90;;;;;;5070290;28;20124;-75
2022/09/14 09:19:29;;;;;;;0.15;0.15;;;24.50;99.90;;;;;;5070254;28;20020;-75
2022/09/14 09:21:56;;;;;;;0.00;0.00;;;24.80;99.90;;;;;;5070685;28;20025;-75
2022/09/14 09:24:27;;;;;;;0.38;0.38;;;24.90;99.90;;;;;;5071379;28;20047;-76
2022/09/14 09:26:52;;;;;;;0.47;0.33;;;25.10;99.90;;;;;;5071563;28;20075;-75
2022/09/14 09:29:18;;;;;;;0.10;0.03;;;25.30;99.90;;;;;;5070319;28;20020;-75
2022/09/14 09:31:53;;;;;;;0.00;0.00;;;25.40;99.90;;;;;;5071493;28;20029;-76
2022/09/14 09:34:25;;;;;;;1.33;0.47;;;25.60;99.90;;;;;;5053446;28;20027;-76
2022/09/14 09:36:54;;;;;;;0.15;0.15;;;26.00;99.90;;;;;;5071562;28;20097;-74
2022/09/14 09:39:22;;;;;;;0.10;0.10;;;26.10;99.90;;;;;;5069986;28;20054;-75
2022/09/14 09:42:07;;;;;;;0.25;0.25;;;26.30;99.90;;;;;;5070191;28;20392;-75
2022/09/14 09:44:59;;;;;;;1.23;1.13;;;26.50;99.10;;;;;;5053442;28;20486;-76
2022/09/14 09:47:38;;;;;;;0.95;0.35;;;26.70;98.70;;;;;;5070464;28;20021;-76
2022/09/14 09:50:26;;;;;;;0.00;0.00;;;26.60;96.70;;;;;;5070223;28;20025;-75
2022/09/14 09:52:58;;;;;;;0.10;0.10;;;26.90;97.10;;;;;;5071139;28;20106;-75
2022/09/14 09:55:37;;;;;;;0.15;0.15;;;26.80;95.70;;;;;;5072212;28;20016;-76
2022/09/14 09:58:37;;;;;;;0.52;0.47;;;26.90;95.40;;;;;;5071290;28;20025;-76
2022/09/14 10:01:16;;;;;;;4.85;2.65;;;27.40;95.80;;;;;;5062270;28;20036;-76
2022/09/14 10:03:42;;;;;;;0.10;0.10;;;27.40;94.00;;;;;;5069786;28;20094;-75
2022/09/14 10:06:11;;;;;;;2.10;1.55;;;27.20;93.80;;;;;;5079465;28;20020;-75
2022/09/14 10:08:43;;;;;;;0.00;0.00;;;27.50;94.10;;;;;;5055707;28;20095;-76
2022/09/14 10:11:36;;;;;;;0.45;0.38;;;27.70;93.40;;;;;;5090988;28;20115;-76
2022/09/14 10:14:39;;;;;;;1.08;0.55;;;28.00;93.20;;;;;;5080547;28;20032;-75
2022/09/14 10:17:25;;;;;;;0.22;0.22;;;27.80;92.20;;;;;;5078387;28;20023;-75
2022/09/14 10:19:53;;;;;;;0.65;0.20;;;27.80;91.30;;;;;;5059596;28;20174;-76
2022/09/14 10:22:28;;;;;;;0.05;0.05;;;27.50;90.40;;;;;;5094838;28;20095;-75
2022/09/14 10:25:19;;;;;;;0.00;0.00;;;27.10;91.00;;;;;;5083915;28;20094;-75
2022/09/14 10:27:54;;;;;;;0.75;0.32;;;27.40;91.00;;;;;;5074243;28;20103;-76
2022/09/14 10:30:21;;;;;;;0.55;0.43;;;27.60;90.20;;;;;;5073078;28;20028;-76
2022/09/14 10:32:59;;;;;;;0.10;0.10;;;27.40;89.70;;;;;;5078211;28;20018;-75
2022/09/14 10:35:44;;;;;;;0.00;0.00;;;27.20;90.40;;;;;;5094296;28;20028;-76
2022/09/14 10:38:44;;;;;;;0.20;0.20;;;27.40;90.50;;;;;;5094481;28;20020;-75
2022/09/14 10:41:21;;;;;;;2.03;0.93;;;26.90;90.00;;;;;;5094510;28;20414;-75
2022/09/14 10:44:07;;;;;;;3.10;1.75;;;27.30;88.70;;;;;;5094113;28;20035;-75
2022/09/14 10:46:59;;;;;;;1.55;0.47;;;27.10;88.70;;;;;;5094311;28;20043;-75
2022/09/14 10:49:28;;;;;;;1.38;0.32;;;27.30;88.30;;;;;;5089546;28;20181;-75
2022/09/14 10:52:04;;;;;;;0.30;0.30;;;27.20;87.90;;;;;;5094127;28;20027;-76
2022/09/14 10:55:18;;;;;;;0.00;0.00;;;26.90;85.70;;;;;;5094409;28;20051;-75
2022/09/14 10:58:03;;;;;;;2.75;0.15;;;26.70;86.80;;;;;;5094079;28;20028;-75
2022/09/14 11:00:35;;;;;;;2.50;0.63;;;26.80;87.60;;;;;;5094143;28;20027;-75
2022/09/14 11:03:15;;;;;;;4.70;0.93;;;26.80;86.00;;;;;;5093917;28;20356;-75
2022/09/14 11:06:11;;;;;;;0.10;0.10;;;27.00;86.40;;;;;;5093665;28;20081;-75
2022/09/14 11:08:53;;;;;;;0.00;0.00;;;28.00;84.40;;;;;;5094025;28;20020;-75
2022/09/14 11:11:47;;;;;;;1.98;1.73;;;28.30;82.60;;;;;;5093820;28;20032;-75
2022/09/14 11:14:30;;;;;;;9.52;0.43;;;28.90;79.40;;;;;;5092477;28;20043;-76
2022/09/14 11:16:59;;;;;;;0.75;0.05;;;29.10;78.40;;;;;;5093607;28;20486;-75
2022/09/14 11:19:54;;;;;;;0.10;0.10;;;29.00;77.40;;;;;;5092239;28;20024;-75
2022/09/14 11:22:46;;;;;;;0.30;0.30;;;29.20;77.90;;;;;;5089387;28;20559;-75
2022/09/14 11:25:22;;;;;;;2.35;0.75;;;29.50;76.20;;;;;;5093564;28;20115;-76
2022/09/14 11:27:53;;;;;;;0.00;0.00;;;29.70;75.40;;;;;;5093465;28;20484;-75
2022/09/14 11:30:22;;;;;;;0.10;0.10;;;30.00;75.70;;;;;;5093343;28;20166;-76
2022/09/14 11:33:02;;;;;;;0.60;0.60;;;30.20;74.60;;;;;;5093229;28;20523;-76
2022/09/14 11:35:44;;;;;;;1.23;0.95;;;30.20;71.70;;;;;;5087000;28;20023;-75
2022/09/14 11:38:11;;;;;;;;;;;30.00;70.90;;;;;;5089061;28;20037;-76
2022/09/14 11:40:55;;;;;;;5.50;0.77;;;30.30;72.70;;;;;;5129182;22;19920;-73
2022/09/14 11:43:33;;;;;;;5.55;1.30;;;30.10;70.60;;;;;;5051013;28;20066;-73
2022/09/14 11:46:10;;;;;;;0.00;0.00;;;29.70;70.00;;;;;;5051972;28;20109;-73
2022/09/14 11:48:55;;;;;;;0.00;0.00;;;29.90;70.80;;;;;;5052367;28;20017;-72
2022/09/14 11:51:38;;;;;;;3.05;1.52;;;29.80;71.50;;;;;;5050489;28;20115;-73
2022/09/14 11:54:12;;;;;;;0.00;0.00;;;30.10;71.50;;;;;;5051684;28;20026;-72
2022/09/14 11:56:38;;;;;;;0.00;0.00;;;30.50;68.80;;;;;;5050335;28;20022;-72
2022/09/14 11:59:06;;;;;;;0.00;0.00;;;30.60;68.20;;;;;;5051724;28;20017;-73
2022/09/14 12:01:37;;;;;;;0.00;0.00;;;30.70;67.60;;;;;;5051601;28;20350;-73
2022/09/14 12:04:09;;;;;;;0.10;0.10;;;30.40;69.10;;;;;;5051819;28;20028;-72
2022/09/14 12:06:35;;;;;;;0.00;0.00;;;30.40;68.90;;;;;;5051787;28;20055;-72
2022/09/14 12:09:18;;;;;;;0.65;0.40;;;30.40;68.80;;;;;;5052069;28;20021;-72
2022/09/14 12:11:47;;;;;;;0.00;0.00;;;29.50;67.00;;;;;;5051250;28;20032;-72
2022/09/14 12:14:31;;;;;;;0.00;0.00;;;28.60;69.40;;;;;;5051358;28;20100;-72
2022/09/14 12:17:16;;;;;;;5.25;1.35;;;28.00;70.60;;;;;;5051926;28;20028;-72
2022/09/14 12:19:45;;;;;;;2.28;0.50;;;27.70;72.40;;;;;;5049689;28;20024;-72
2022/09/14 12:22:31;;;;;;;1.77;0.55;;;27.80;72.40;;;;;;5051277;28;20040;-72
2022/09/14 12:25:18;;;;;;;0.03;0.03;;;27.60;72.40;;;;;;5043777;28;20021;-72
2022/09/14 12:27:46;;;;;;;2.53;0.20;;;27.50;73.70;;;;;;5044970;28;20049;-72
2022/09/14 12:30:53;;;;;;;8.18;1.35;;;27.60;72.90;;;;;;5050698;28;20035;-72
2022/09/14 12:33:31;;;;;;;0.88;0.80;;;27.50;73.30;;;;;;5049657;28;20101;-72
2022/09/14 12:35:57;;;;;;;0.00;0.00;;;27.50;71.70;;;;;;5049491;28;20033;-72
2022/09/14 12:38:29;;;;;;;1.40;0.63;;;27.40;72.60;;;;;;5050607;28;20485;-72
2022/09/14 12:41:09;;;;;;;0.00;0.00;;;27.20;73.50;;;;;;5051263;28;20033;-72
2022/09/14 12:43:35;;;;;;;0.00;0.00;;;27.40;73.50;;;;;;5051391;28;20036;-73
2022/09/14 12:46:19;;;;;;;0.10;0.10;;;27.60;72.70;;;;;;5051163;28;20021;-72
2022/09/14 12:48:48;;;;;;;0.00;0.00;;;28.00;72.40;;;;;;5049920;28;20047;-72
2022/09/14 12:51:31;;;;;;;0.00;0.00;;;28.00;72.00;;;;;;5050556;28;20017;-72
2022/09/14 12:54:00;;;;;;;1.30;0.28;;;27.90;73.00;;;;;;5049160;28;20074;-72
2022/09/14 12:56:39;;;;;;;0.00;0.00;;;27.40;72.40;;;;;;5049730;28;20021;-72
2022/09/14 12:59:13;;;;;;;0.00;0.00;;;27.00;75.50;;;;;;5049345;28;20016;-72
2022/09/14 13:02:18;;;;;;;0.30;0.30;;;26.80;76.00;;;;;;5051168;28;20024;-72
2022/09/14 13:04:46;;;;;;;1.00;0.52;;;26.80;76.40;;;;;;5048983;28;20033;-72
2022/09/14 13:07:18;;;;;;;0.38;0.38;;;26.70;76.70;;;;;;5051122;28;20426;-72
2022/09/14 13:09:56;;;;;;;0.90;0.43;;;26.40;78.50;;;;;;5049592;28;20082;-72
2022/09/14 13:12:27;;;;;;;0.00;0.00;;;26.00;79.40;;;;;;5050865;28;20024;-74
2022/09/14 13:14:58;;;;;;;0.00;0.00;;;25.90;81.60;;;;;;5048934;28;20033;-72